Time;durP1;ratioP1;P1;durP2;ratioP2;P2;SDS_P1;SDS_P2;PMS_P1;PMS_P2;Temp;Humidity;BMP_temperature;BMP_pressure;BME280_temperature;BME280_humidity;BME280_pressure;Samples;Min_cycle;Max_cycle;Signal;HPM_P1;HPM_P2
2024/03/14 00:02:25;;;;;;;8.38;7.35;;;12.50;99.90;;;;;;4937889;28;20252;-77
2024/03/14 00:04:52;;;;;;;9.15;8.25;;;12.60;99.90;;;;;;4957462;28;20680;-77
2024/03/14 00:07:19;;;;;;;8.88;7.95;;;12.60;99.90;;;;;;4957311;28;20628;-78
2024/03/14 00:09:46;;;;;;;8.15;6.88;;;12.60;99.90;;;;;;4941701;28;20283;-77
2024/03/14 00:12:14;;;;;;;7.97;7.18;;;12.60;99.90;;;;;;4941900;28;20607;-77
2024/03/14 00:14:44;;;;;;;9.48;8.57;;;12.70;99.90;;;;;;4941316;28;20247;-77
2024/03/14 00:17:12;;;;;;;10.05;8.63;;;12.70;99.90;;;;;;4942854;28;20585;-77
2024/03/14 00:19:41;;;;;;;8.70;7.80;;;12.70;99.90;;;;;;4941499;28;20219;-77
2024/03/14 00:22:08;;;;;;;10.20;9.13;;;12.70;99.90;;;;;;4941855;28;20227;-78
2024/03/14 00:24:37;;;;;;;11.50;9.88;;;12.70;99.90;;;;;;4941212;28;20231;-77
2024/03/14 00:27:04;;;;;;;10.40;9.50;;;12.70;99.90;;;;;;4942413;28;20223;-77
2024/03/14 00:29:31;;;;;;;12.30;11.00;;;12.70;99.90;;;;;;4941155;28;20223;-78
2024/03/14 00:32:00;;;;;;;10.40;9.40;;;12.70;99.90;;;;;;4941592;28;20286;-78
2024/03/14 00:34:27;;;;;;;9.55;8.40;;;12.70;99.90;;;;;;4941089;28;20657;-78
2024/03/14 00:36:55;;;;;;;11.50;9.07;;;12.60;99.90;;;;;;4957885;28;20231;-78
2024/03/14 00:39:22;;;;;;;9.57;8.40;;;12.60;99.90;;;;;;4956898;28;20242;-77
2024/03/14 00:41:50;;;;;;;8.82;8.05;;;12.60;99.90;;;;;;4961318;28;20242;-78
2024/03/14 00:44:18;;;;;;;10.80;9.52;;;12.60;99.90;;;;;;4961298;28;20231;-78
2024/03/14 00:46:45;;;;;;;11.70;10.60;;;12.50;99.90;;;;;;4972280;28;20227;-77
2024/03/14 00:49:15;;;;;;;9.82;8.70;;;12.50;99.90;;;;;;4945381;28;20277;-78
2024/03/14 00:51:44;;;;;;;12.30;11.05;;;12.50;99.90;;;;;;4946245;28;20243;-77
2024/03/14 00:54:11;;;;;;;10.45;9.45;;;12.40;99.90;;;;;;4944988;28;20250;-77
2024/03/14 00:56:40;;;;;;;11.15;10.05;;;12.40;99.90;;;;;;4944926;28;20231;-76
2024/03/14 00:59:07;;;;;;;8.90;8.00;;;12.40;99.90;;;;;;4945379;28;20227;-76
2024/03/14 01:01:36;;;;;;;13.35;11.13;;;12.30;99.90;;;;;;4944142;28;20563;-76
2024/03/14 01:04:04;;;;;;;11.93;10.68;;;12.30;99.90;;;;;;4960589;28;20231;-76
2024/03/14 01:06:32;;;;;;;10.88;9.77;;;12.20;99.90;;;;;;4960658;28;20343;-76
2024/03/14 01:08:59;;;;;;;11.75;10.55;;;12.10;99.90;;;;;;4960309;28;20242;-76
2024/03/14 01:11:26;;;;;;;14.07;12.60;;;12.10;99.90;;;;;;4944469;28;20223;-76
2024/03/14 01:13:54;;;;;;;11.95;10.68;;;12.00;99.90;;;;;;4944856;28;20267;-78
2024/03/14 01:16:21;;;;;;;14.55;13.02;;;12.00;99.90;;;;;;4944660;28;20228;-78
2024/03/14 01:18:50;;;;;;;14.30;12.45;;;11.90;99.90;;;;;;4944120;28;20220;-76
2024/03/14 01:21:17;;;;;;;13.68;12.18;;;11.90;99.90;;;;;;4945279;28;20235;-77
2024/03/14 01:23:44;;;;;;;16.02;14.27;;;11.90;99.90;;;;;;4943665;28;20238;-77
2024/03/14 01:26:11;;;;;;;12.93;11.63;;;11.90;99.90;;;;;;4944762;28;20240;-76
2024/03/14 01:28:41;;;;;;;13.55;12.25;;;11.80;99.90;;;;;;4944259;28;20235;-77
2024/03/14 01:31:08;;;;;;;12.88;11.30;;;11.80;99.90;;;;;;4945004;28;20231;-77
2024/03/14 01:33:36;;;;;;;14.93;13.43;;;11.80;99.90;;;;;;4943641;28;20258;-77
2024/03/14 01:36:04;;;;;;;13.38;11.98;;;11.80;99.90;;;;;;4944111;28;20306;-77
2024/03/14 01:38:33;;;;;;;13.82;12.00;;;11.80;99.90;;;;;;4944163;28;20231;-77
2024/03/14 01:41:00;;;;;;;13.50;12.10;;;11.80;99.90;;;;;;4944624;28;20306;-77
2024/03/14 01:43:27;;;;;;;14.65;13.15;;;11.80;99.90;;;;;;4940320;29;20674;-77
2024/03/14 01:45:54;;;;;;;13.70;12.40;;;11.80;99.90;;;;;;4948920;28;20231;-77
2024/03/14 01:48:22;;;;;;;16.08;13.27;;;11.70;99.90;;;;;;4944309;28;20227;-77
2024/03/14 01:50:49;;;;;;;15.35;13.73;;;11.80;99.90;;;;;;4943339;28;20238;-77
2024/03/14 01:53:16;;;;;;;13.85;12.48;;;11.80;99.90;;;;;;4943632;28;20235;-77
2024/03/14 01:55:44;;;;;;;14.30;12.90;;;11.70;99.90;;;;;;4943529;28;20237;-77
2024/03/14 01:58:11;;;;;;;15.00;13.50;;;11.70;99.90;;;;;;4944072;28;20245;-76
2024/03/14 02:00:38;;;;;;;13.48;12.07;;;11.80;99.90;;;;;;4943529;28;20227;-76
2024/03/14 02:03:06;;;;;;;16.08;13.65;;;11.70;99.90;;;;;;4940512;29;20316;-77
2024/03/14 02:05:33;;;;;;;14.52;12.98;;;11.80;99.90;;;;;;4940356;28;20251;-77
2024/03/14 02:08:01;;;;;;;15.77;12.82;;;11.80;99.90;;;;;;4940828;29;20232;-78
2024/03/14 02:10:28;;;;;;;14.50;13.02;;;11.80;99.90;;;;;;4940323;28;20562;-77
2024/03/14 02:12:55;;;;;;;15.82;14.05;;;11.70;99.90;;;;;;4940037;29;20228;-77
2024/03/14 02:15:23;;;;;;;17.42;15.63;;;11.70;99.90;;;;;;4940578;29;20228;-77
2024/03/14 02:17:51;;;;;;;16.95;14.10;;;11.70;99.90;;;;;;4940484;28;20554;-78
2024/03/14 02:20:20;;;;;;;14.23;12.82;;;11.70;99.90;;;;;;4940376;29;20236;-77
2024/03/14 02:22:47;;;;;;;15.63;13.32;;;11.70;99.90;;;;;;4939954;28;20303;-77
2024/03/14 02:25:15;;;;;;;15.50;14.07;;;11.70;99.90;;;;;;4940171;29;20232;-77
2024/03/14 02:27:42;;;;;;;15.68;13.65;;;11.80;99.90;;;;;;4938571;28;20232;-77
2024/03/14 02:30:09;;;;;;;18.63;16.73;;;11.70;99.90;;;;;;4940100;29;20314;-77
2024/03/14 02:32:37;;;;;;;17.58;15.77;;;11.70;99.90;;;;;;4939677;28;20308;-77
2024/03/14 02:35:04;;;;;;;14.77;13.32;;;11.70;99.90;;;;;;4939954;29;20239;-77
2024/03/14 02:37:32;;;;;;;16.90;15.15;;;11.70;99.90;;;;;;4939576;28;20716;-77
2024/03/14 02:40:05;;;;;;;17.05;15.32;;;11.80;99.90;;;;;;4939818;29;20231;-77
2024/03/14 02:42:32;;;;;;;15.30;13.70;;;11.80;99.90;;;;;;4940174;28;20232;-77
2024/03/14 02:45:00;;;;;;;15.35;13.75;;;11.80;99.90;;;;;;4940145;29;20687;-76
2024/03/14 02:47:28;;;;;;;15.15;13.55;;;11.80;99.90;;;;;;4940233;29;20895;-76
2024/03/14 02:49:56;;;;;;;14.52;13.13;;;11.80;99.90;;;;;;4939188;28;20580;-76
2024/03/14 02:52:26;;;;;;;15.75;14.20;;;11.80;99.90;;;;;;4939936;29;20262;-77
2024/03/14 02:54:55;;;;;;;16.95;15.20;;;11.90;99.90;;;;;;4938953;28;20220;-76
2024/03/14 02:57:22;;;;;;;15.48;13.88;;;11.90;99.90;;;;;;4939901;29;20224;-76
2024/03/14 02:59:52;;;;;;;16.48;14.43;;;11.90;99.90;;;;;;4938930;28;20567;-77
2024/03/14 03:02:25;;;;;;;17.30;15.50;;;11.90;99.90;;;;;;4939484;29;20286;-75
2024/03/14 03:04:56;;;;;;;14.43;13.02;;;11.90;99.90;;;;;;4939589;28;20234;-76
2024/03/14 03:07:23;;;;;;;16.60;15.07;;;11.90;99.90;;;;;;4940220;29;20315;-77
2024/03/14 03:09:50;;;;;;;16.80;15.20;;;11.90;99.90;;;;;;4938574;28;20232;-77
2024/03/14 03:12:18;;;;;;;15.02;13.63;;;12.00;99.90;;;;;;4939822;29;20706;-77
2024/03/14 03:14:45;;;;;;;14.40;12.90;;;12.00;99.90;;;;;;4938492;28;20306;-77
2024/03/14 03:17:12;;;;;;;14.43;13.00;;;12.00;99.90;;;;;;4939344;29;20681;-77
2024/03/14 03:19:39;;;;;;;15.52;14.02;;;12.00;99.90;;;;;;4938944;28;20250;-77
2024/03/14 03:22:06;;;;;;;15.07;13.52;;;12.00;99.90;;;;;;4939236;29;20234;-77
2024/03/14 03:24:33;;;;;;;17.17;14.57;;;12.10;99.90;;;;;;4939145;29;20235;-77
2024/03/14 03:27:08;;;;;;;15.05;13.63;;;12.10;99.90;;;;;;4939027;29;20236;-76
2024/03/14 03:29:34;;;;;;;16.27;14.23;;;12.10;99.90;;;;;;4940164;29;20583;-77
2024/03/14 03:32:01;;;;;;;15.75;13.13;;;12.10;99.90;;;;;;4938575;28;20235;-77
2024/03/14 03:34:28;;;;;;;17.45;15.60;;;12.20;99.90;;;;;;4939054;29;20315;-76
2024/03/14 03:36:54;;;;;;;18.60;16.50;;;12.10;99.90;;;;;;4938688;28;20232;-77
2024/03/14 03:39:25;;;;;;;16.42;14.77;;;12.10;99.90;;;;;;4939108;29;20223;-76
2024/03/14 03:41:52;;;;;;;16.67;14.88;;;12.10;99.90;;;;;;4939197;28;20227;-76
2024/03/14 03:44:23;;;;;;;19.70;17.20;;;12.10;99.90;;;;;;4938412;29;20228;-76
2024/03/14 03:46:51;;;;;;;17.85;14.65;;;12.10;99.90;;;;;;4938991;28;20224;-76
2024/03/14 03:49:18;;;;;;;16.15;14.32;;;12.10;99.90;;;;;;4939114;29;20622;-76
2024/03/14 03:51:47;;;;;;;16.63;14.10;;;12.20;99.90;;;;;;4938319;28;20223;-76
2024/03/14 03:54:14;;;;;;;19.98;17.33;;;12.20;99.90;;;;;;4938899;29;20235;-76
2024/03/14 03:56:41;;;;;;;16.73;14.57;;;12.20;99.90;;;;;;4938404;28;20227;-77
2024/03/14 03:59:08;;;;;;;18.67;15.90;;;12.20;99.90;;;;;;4938787;29;20231;-76
2024/03/14 04:01:35;;;;;;;17.77;15.85;;;12.20;99.90;;;;;;4939004;29;20593;-76
2024/03/14 04:04:03;;;;;;;16.88;15.10;;;12.20;99.90;;;;;;4937812;28;20231;-76
2024/03/14 04:06:33;;;;;;;18.48;16.63;;;12.20;99.90;;;;;;4938526;29;20224;-76
2024/03/14 04:09:01;;;;;;;17.45;15.55;;;12.30;99.90;;;;;;4938901;28;20236;-76
2024/03/14 04:11:27;;;;;;;20.35;17.38;;;12.30;99.90;;;;;;4938926;29;20227;-76
2024/03/14 04:13:54;;;;;;;18.15;15.15;;;12.30;99.90;;;;;;4939270;28;20231;-77
2024/03/14 04:16:22;;;;;;;16.90;15.00;;;12.30;99.90;;;;;;4945262;28;20269;-77
2024/03/14 04:18:49;;;;;;;18.92;15.45;;;12.30;99.90;;;;;;4944475;28;20306;-77
2024/03/14 04:21:16;;;;;;;18.98;15.50;;;12.30;99.90;;;;;;4944876;29;20290;-77
2024/03/14 04:23:44;;;;;;;20.40;16.42;;;12.30;99.90;;;;;;4944461;28;20565;-76
2024/03/14 04:26:15;;;;;;;17.92;15.13;;;12.40;99.90;;;;;;4945034;29;20238;-76
2024/03/14 04:28:42;;;;;;;17.63;15.20;;;12.40;99.90;;;;;;4944821;28;20564;-77
2024/03/14 04:31:09;;;;;;;20.05;15.63;;;12.40;99.90;;;;;;4944915;29;20224;-76
2024/03/14 04:33:37;;;;;;;18.15;15.50;;;12.40;99.90;;;;;;4944670;29;20228;-76
2024/03/14 04:36:08;;;;;;;17.83;15.98;;;12.50;99.90;;;;;;4945039;28;20223;-76
2024/03/14 04:38:37;;;;;;;18.80;16.20;;;12.50;99.90;;;;;;4945160;29;20307;-76
2024/03/14 04:41:14;;;;;;;24.10;18.00;;;12.50;99.90;;;;;;4944557;28;20599;-76
2024/03/14 04:43:41;;;;;;;21.20;17.05;;;12.50;99.90;;;;;;4945802;28;20223;-77
2024/03/14 04:46:08;;;;;;;19.08;15.90;;;12.50;99.90;;;;;;4944300;28;20242;-77
2024/03/14 04:48:36;;;;;;;20.25;16.25;;;12.50;99.90;;;;;;4944758;29;20232;-77
2024/03/14 04:51:04;;;;;;;21.63;16.77;;;12.50;99.90;;;;;;4944263;28;20228;-77
2024/03/14 04:53:31;;;;;;;21.15;16.92;;;12.50;99.90;;;;;;4944526;29;20244;-77
2024/03/14 04:55:58;;;;;;;23.85;17.98;;;12.60;99.90;;;;;;4944285;28;20228;-77
2024/03/14 04:58:25;;;;;;;19.30;17.30;;;12.60;99.90;;;;;;4944550;29;20311;-77
2024/03/14 05:00:53;;;;;;;22.83;19.20;;;12.60;99.90;;;;;;4944213;28;20228;-77
2024/03/14 05:03:20;;;;;;;23.50;19.50;;;12.60;99.90;;;;;;4944360;29;20675;-77
2024/03/14 05:05:48;;;;;;;18.58;16.42;;;12.60;99.90;;;;;;4943973;28;20228;-78
2024/03/14 05:08:15;;;;;;;18.70;16.67;;;12.60;99.90;;;;;;4944749;29;20557;-76
2024/03/14 05:10:43;;;;;;;21.52;17.13;;;12.60;99.90;;;;;;4944655;28;20291;-76
2024/03/14 05:13:11;;;;;;;19.92;17.25;;;12.60;99.90;;;;;;4944268;28;20274;-77
2024/03/14 05:15:38;;;;;;;23.98;19.60;;;12.60;99.90;;;;;;4944521;29;20275;-76
2024/03/14 05:18:05;;;;;;;19.80;15.40;;;12.60;99.90;;;;;;4943333;28;20228;-76
2024/03/14 05:20:32;;;;;;;19.70;17.38;;;12.70;99.90;;;;;;4944389;29;20330;-75
2024/03/14 05:23:02;;;;;;;20.10;17.05;;;12.60;99.90;;;;;;4943998;28;20242;-77
2024/03/14 05:25:30;;;;;;;21.38;17.13;;;12.70;99.90;;;;;;4943322;29;20228;-77
2024/03/14 05:27:58;;;;;;;22.83;17.50;;;12.60;99.90;;;;;;4940816;28;20694;-77
2024/03/14 05:30:25;;;;;;;20.35;16.48;;;12.60;99.90;;;;;;4941420;29;20220;-77
2024/03/14 05:32:53;;;;;;;20.70;16.65;;;12.70;99.90;;;;;;4940791;28;20250;-77
2024/03/14 05:35:20;;;;;;;24.45;20.50;;;12.70;99.90;;;;;;4941321;29;20236;-76
2024/03/14 05:37:49;;;;;;;20.88;16.90;;;12.60;99.90;;;;;;4940963;29;20323;-76
2024/03/14 05:40:19;;;;;;;21.10;17.13;;;12.70;99.90;;;;;;4941347;28;20279;-76
2024/03/14 05:42:47;;;;;;;23.48;19.67;;;12.70;99.90;;;;;;4956538;28;20236;-76
2024/03/14 05:45:14;;;;;;;20.95;16.67;;;12.60;99.90;;;;;;4940328;28;20235;-76
2024/03/14 05:47:41;;;;;;;25.52;19.52;;;12.70;99.90;;;;;;4940154;29;20294;-76
2024/03/14 05:50:09;;;;;;;22.85;17.85;;;12.70;99.90;;;;;;4939995;28;20224;-76
2024/03/14 05:52:36;;;;;;;21.88;18.40;;;12.70;99.90;;;;;;4940783;29;20247;-76
2024/03/14 05:55:05;;;;;;;29.05;21.88;;;12.70;99.90;;;;;;4940180;28;20226;-76
2024/03/14 05:57:33;;;;;;;22.60;19.85;;;12.70;99.90;;;;;;4940969;29;20239;-76
2024/03/14 06:00:00;;;;;;;23.55;20.17;;;12.70;99.90;;;;;;4939905;28;20232;-76
2024/03/14 06:02:30;;;;;;;24.55;20.92;;;12.80;99.90;;;;;;4940658;28;20239;-76
2024/03/14 06:04:57;;;;;;;26.85;21.33;;;12.80;99.90;;;;;;4943592;28;20241;-76
2024/03/14 06:07:24;;;;;;;25.67;21.35;;;12.70;99.90;;;;;;4944130;28;20310;-77
2024/03/14 06:09:52;;;;;;;26.35;21.63;;;12.70;99.90;;;;;;4943862;28;20699;-76
2024/03/14 06:12:19;;;;;;;23.40;19.15;;;12.80;99.90;;;;;;4943682;28;20247;-75
2024/03/14 06:14:46;;;;;;;25.90;21.95;;;12.70;99.90;;;;;;4943844;28;20233;-76
2024/03/14 06:17:15;;;;;;;24.20;20.55;;;12.70;99.90;;;;;;4943094;28;20231;-75
2024/03/14 06:19:42;;;;;;;30.08;21.35;;;12.70;99.90;;;;;;4944122;28;20228;-75
2024/03/14 06:22:10;;;;;;;24.45;20.40;;;12.80;99.90;;;;;;4942935;28;20564;-76
2024/03/14 06:24:37;;;;;;;26.45;21.10;;;12.80;99.90;;;;;;4943886;28;20227;-76
2024/03/14 06:27:05;;;;;;;26.08;22.27;;;12.80;99.90;;;;;;4942796;28;20231;-76
2024/03/14 06:29:32;;;;;;;23.83;19.00;;;12.70;99.90;;;;;;4943659;28;20237;-78
2024/03/14 06:32:02;;;;;;;20.60;18.27;;;12.80;99.90;;;;;;4942584;28;20227;-77
2024/03/14 06:34:30;;;;;;;22.08;18.33;;;12.70;99.90;;;;;;4943477;28;20230;-76
2024/03/14 06:36:57;;;;;;;28.10;19.83;;;12.80;99.90;;;;;;4942598;28;20238;-76
2024/03/14 06:39:26;;;;;;;23.15;18.55;;;12.80;99.90;;;;;;4942495;28;20302;-76
2024/03/14 06:41:53;;;;;;;25.92;19.70;;;12.80;99.90;;;;;;4943668;28;20604;-76
2024/03/14 06:44:22;;;;;;;20.98;17.17;;;12.80;99.90;;;;;;4942835;28;20640;-75
2024/03/14 06:46:49;;;;;;;23.83;18.83;;;12.80;99.90;;;;;;4943647;28;20227;-76
2024/03/14 06:49:18;;;;;;;28.90;21.42;;;12.90;99.90;;;;;;4942817;28;20289;-75
2024/03/14 06:51:45;;;;;;;23.10;18.63;;;12.80;99.90;;;;;;4943296;28;20310;-77
2024/03/14 06:54:13;;;;;;;25.45;20.30;;;12.90;99.90;;;;;;4942431;28;20223;-77
2024/03/14 06:56:40;;;;;;;29.00;21.52;;;12.90;99.90;;;;;;4942598;28;20228;-77
2024/03/14 06:59:13;;;;;;;25.38;20.20;;;12.90;99.90;;;;;;4942336;28;20234;-77
2024/03/14 07:01:41;;;;;;;26.35;20.30;;;12.90;99.90;;;;;;4943093;28;20302;-77
2024/03/14 07:04:09;;;;;;;25.58;19.65;;;13.00;99.90;;;;;;4938810;28;20228;-76
2024/03/14 07:06:36;;;;;;;26.67;20.95;;;13.00;99.90;;;;;;4939653;29;20240;-75
2024/03/14 07:09:09;;;;;;;30.00;22.03;;;13.00;99.90;;;;;;4938983;28;20232;-76
2024/03/14 07:11:36;;;;;;;27.30;22.52;;;13.00;99.90;;;;;;4940152;29;20543;-75
2024/03/14 07:14:04;;;;;;;29.38;22.85;;;13.10;99.90;;;;;;4939146;28;20267;-76
2024/03/14 07:16:32;;;;;;;29.70;23.30;;;13.10;99.90;;;;;;4938705;29;20633;-75
2024/03/14 07:19:00;;;;;;;29.27;21.30;;;13.10;99.90;;;;;;4939581;29;20294;-75
2024/03/14 07:21:28;;;;;;;26.92;20.27;;;13.10;99.90;;;;;;4939649;28;20303;-77
2024/03/14 07:23:55;;;;;;;30.30;22.48;;;13.20;99.90;;;;;;4939179;29;20268;-76
2024/03/14 07:26:24;;;;;;;30.35;23.38;;;13.20;99.90;;;;;;4938689;28;20307;-76
2024/03/14 07:28:53;;;;;;;31.25;25.20;;;13.20;99.90;;;;;;4939072;29;20563;-77
2024/03/14 07:31:20;;;;;;;30.17;23.33;;;13.30;99.90;;;;;;4938592;28;20713;-75
2024/03/14 07:33:52;;;;;;;32.47;25.33;;;13.30;99.90;;;;;;4939163;29;20248;-77
2024/03/14 07:36:20;;;;;;;29.52;22.58;;;13.30;99.90;;;;;;4930704;28;20248;-77
2024/03/14 07:38:47;;;;;;;27.20;21.13;;;13.30;99.90;;;;;;4954862;29;20332;-75
2024/03/14 07:41:20;;;;;;;25.67;19.42;;;13.30;99.90;;;;;;4938393;28;20228;-75
2024/03/14 07:43:47;;;;;;;28.00;21.65;;;13.40;99.90;;;;;;4938320;29;20238;-77
2024/03/14 07:46:15;;;;;;;34.67;25.20;;;13.40;99.90;;;;;;4937953;28;20320;-75
2024/03/14 07:48:48;;;;;;;30.35;23.38;;;13.30;99.90;;;;;;4938525;29;20228;-76
2024/03/14 07:51:16;;;;;;;30.15;22.77;;;13.40;99.90;;;;;;4938893;28;20228;-77
2024/03/14 07:53:48;;;;;;;25.75;20.58;;;13.40;99.90;;;;;;4938806;29;20242;-75
2024/03/14 07:56:17;;;;;;;28.30;21.70;;;13.40;99.90;;;;;;4938772;28;20228;-75
2024/03/14 07:58:46;;;;;;;28.10;21.40;;;13.40;99.90;;;;;;4938651;29;20275;-77
2024/03/14 08:01:16;;;;;;;23.35;19.70;;;13.40;99.90;;;;;;4938586;28;20224;-77
2024/03/14 08:03:47;;;;;;;25.65;20.67;;;13.50;99.90;;;;;;4941391;28;20322;-75
2024/03/14 08:06:18;;;;;;;30.25;23.25;;;13.50;99.90;;;;;;4942657;28;20325;-79
2024/03/14 08:08:45;;;;;;;26.55;21.05;;;13.50;99.90;;;;;;4934929;28;20231;-79
2024/03/14 08:11:16;;;;;;;25.48;20.52;;;13.40;99.90;;;;;;4941323;28;20239;-76
2024/03/14 08:13:43;;;;;;;31.45;23.30;;;13.50;99.90;;;;;;4942875;28;20262;-78
2024/03/14 08:16:14;;;;;;;26.00;18.73;;;13.50;99.90;;;;;;4941669;28;20227;-78
2024/03/14 08:18:42;;;;;;;24.63;21.13;;;13.50;99.90;;;;;;4942283;28;20600;-78
2024/03/14 08:21:12;;;;;;;27.77;21.00;;;13.50;99.90;;;;;;4941876;28;20541;-79
2024/03/14 08:23:40;;;;;;;24.38;20.42;;;13.60;99.90;;;;;;4942141;28;20223;-78
2024/03/14 08:26:08;;;;;;;25.60;19.48;;;13.60;99.90;;;;;;4941985;28;20310;-76
2024/03/14 08:28:38;;;;;;;29.30;22.77;;;13.60;99.90;;;;;;4941155;28;20231;-78
2024/03/14 08:31:06;;;;;;;24.63;20.17;;;13.60;99.90;;;;;;4942449;28;20673;-77
2024/03/14 08:33:34;;;;;;;22.97;18.17;;;13.70;99.90;;;;;;4933119;28;20289;-77
2024/03/14 08:36:02;;;;;;;23.25;19.40;;;13.70;99.90;;;;;;4942040;28;20466;-77
2024/03/14 08:38:30;;;;;;;31.88;23.85;;;13.80;99.90;;;;;;4940910;28;20223;-76
2024/03/14 08:40:57;;;;;;;31.20;22.30;;;13.70;99.90;;;;;;4941609;28;20246;-76
2024/03/14 08:43:25;;;;;;;24.17;19.83;;;13.80;99.90;;;;;;4941165;28;20550;-76
2024/03/14 08:45:52;;;;;;;21.10;18.83;;;13.80;99.90;;;;;;4941682;28;20239;-77
2024/03/14 08:48:21;;;;;;;26.03;19.47;;;13.90;99.90;;;;;;4941808;28;20470;-76
2024/03/14 08:50:48;;;;;;;23.50;17.38;;;14.00;99.90;;;;;;4941380;28;20526;-76
2024/03/14 08:53:15;;;;;;;25.10;18.93;;;14.00;99.90;;;;;;4941758;28;20235;-76
2024/03/14 08:55:52;;;;;;;24.73;20.00;;;14.00;99.90;;;;;;4931526;28;20467;-78
2024/03/14 08:58:21;;;;;;;23.10;18.85;;;14.00;99.90;;;;;;4956850;28;20334;-77
2024/03/14 09:00:48;;;;;;;23.00;18.70;;;14.10;99.90;;;;;;4940395;28;20231;-78
2024/03/14 09:03:16;;;;;;;23.70;18.30;;;14.10;99.90;;;;;;4945098;28;20479;-77
2024/03/14 09:05:46;;;;;;;27.42;19.33;;;14.20;99.90;;;;;;4934822;28;20482;-77
2024/03/14 09:08:18;;;;;;;22.07;18.13;;;14.30;99.90;;;;;;4960854;28;20223;-77
2024/03/14 09:10:45;;;;;;;22.53;18.33;;;14.20;99.90;;;;;;4945860;28;20482;-77
2024/03/14 09:13:14;;;;;;;17.83;15.10;;;14.30;99.90;;;;;;4935766;28;20462;-77
2024/03/14 09:15:41;;;;;;;18.05;15.25;;;14.30;99.90;;;;;;4960398;28;20474;-77
2024/03/14 09:18:09;;;;;;;19.67;15.10;;;14.40;99.90;;;;;;4944965;28;20306;-77
2024/03/14 09:20:38;;;;;;;22.75;19.25;;;14.50;99.90;;;;;;4943829;28;20824;-76
2024/03/14 09:23:15;;;;;;;22.27;18.77;;;14.50;99.90;;;;;;4945235;28;20549;-77
2024/03/14 09:25:43;;;;;;;19.37;16.40;;;14.60;99.90;;;;;;4946982;28;20502;-76
2024/03/14 09:28:11;;;;;;;21.70;16.80;;;14.60;99.90;;;;;;4944916;28;20462;-76
2024/03/14 09:30:38;;;;;;;22.60;18.53;;;14.70;99.90;;;;;;4935331;28;20939;-77
2024/03/14 09:33:06;;;;;;;23.53;18.47;;;14.70;99.90;;;;;;4949455;28;20940;-77
2024/03/14 09:35:33;;;;;;;19.23;16.07;;;14.80;99.90;;;;;;4958895;28;20545;-75
2024/03/14 09:38:03;;;;;;;19.13;16.53;;;14.80;99.90;;;;;;4942302;28;20530;-77
2024/03/14 09:40:30;;;;;;;18.57;15.97;;;14.90;99.90;;;;;;4945291;28;20907;-77
2024/03/14 09:43:02;;;;;;;19.33;16.33;;;14.90;99.90;;;;;;4943669;28;20470;-77
2024/03/14 09:45:29;;;;;;;22.90;18.20;;;15.00;99.90;;;;;;4945397;28;20499;-78
2024/03/14 09:47:57;;;;;;;17.23;15.50;;;15.10;99.90;;;;;;4943953;28;20463;-78
2024/03/14 09:50:24;;;;;;;23.60;19.50;;;15.10;99.90;;;;;;4944322;28;20808;-77
2024/03/14 09:52:51;;;;;;;27.53;19.20;;;15.10;99.90;;;;;;4940617;28;20534;-78
2024/03/14 09:55:19;;;;;;;25.17;17.97;;;15.10;99.90;;;;;;4935887;28;20478;-78
2024/03/14 09:57:46;;;;;;;19.10;15.70;;;15.10;99.90;;;;;;4934235;29;20471;-78
2024/03/14 10:00:15;;;;;;;19.63;16.10;;;15.20;99.90;;;;;;4950625;28;20764;-78
2024/03/14 10:02:43;;;;;;;19.03;15.63;;;15.20;99.90;;;;;;4940893;28;20475;-77
2024/03/14 10:05:11;;;;;;;19.27;15.37;;;15.20;99.90;;;;;;4942093;28;20801;-77
2024/03/14 10:07:39;;;;;;;15.60;14.00;;;15.20;99.90;;;;;;4941967;28;20796;-78
2024/03/14 10:10:31;;;;;;;19.93;16.27;;;15.30;99.90;;;;;;4958745;28;20866;-77
2024/03/14 10:12:59;;;;;;;17.53;14.20;;;15.30;99.90;;;;;;4968359;28;20530;-78
2024/03/14 10:15:27;;;;;;;17.90;15.00;;;15.30;99.90;;;;;;4939634;28;20467;-77
2024/03/14 10:17:56;;;;;;;15.40;13.80;;;15.40;99.90;;;;;;4938187;28;20793;-78
2024/03/14 10:20:23;;;;;;;20.37;18.00;;;15.50;99.90;;;;;;4935065;28;20470;-77
2024/03/14 10:22:50;;;;;;;18.70;15.30;;;15.50;99.90;;;;;;4958063;28;20487;-78
2024/03/14 10:25:23;;;;;;;16.83;15.13;;;15.60;99.90;;;;;;4937951;28;21028;-77
2024/03/14 10:27:53;;;;;;;16.00;14.30;;;15.60;99.90;;;;;;4944564;28;20949;-75
2024/03/14 10:30:21;;;;;;;16.90;13.60;;;15.70;99.90;;;;;;4942515;28;20470;-77
2024/03/14 10:32:50;;;;;;;16.43;13.80;;;15.80;99.90;;;;;;4942317;28;20773;-76
2024/03/14 10:35:19;;;;;;;15.80;13.23;;;15.80;99.90;;;;;;4941498;28;20463;-77
2024/03/14 10:37:47;;;;;;;15.73;12.80;;;15.80;99.90;;;;;;4941521;28;20489;-77
2024/03/14 10:40:16;;;;;;;13.97;12.57;;;15.80;99.90;;;;;;4942759;28;20654;-76
2024/03/14 10:42:46;;;;;;;15.30;13.73;;;15.90;99.90;;;;;;4958880;28;20509;-77
2024/03/14 10:45:13;;;;;;;16.60;14.57;;;15.90;99.90;;;;;;4942879;28;20475;-76
2024/03/14 10:47:41;;;;;;;16.90;14.93;;;15.90;99.90;;;;;;4930406;28;20479;-78
2024/03/14 10:50:12;;;;;;;15.10;13.23;;;15.80;99.90;;;;;;4937873;28;20529;-77
2024/03/14 10:52:41;;;;;;;15.20;12.93;;;15.80;99.90;;;;;;4943705;28;20470;-77
2024/03/14 10:55:10;;;;;;;14.67;12.73;;;15.80;99.90;;;;;;4942845;28;20469;-77
2024/03/14 10:57:38;;;;;;;13.50;12.10;;;15.80;99.90;;;;;;4942910;28;20824;-75
2024/03/14 11:00:13;;;;;;;14.90;11.97;;;15.90;99.90;;;;;;4942091;28;20470;-77
2024/03/14 11:02:41;;;;;;;12.47;11.17;;;15.80;99.90;;;;;;4943473;28;20561;-77
2024/03/14 11:05:09;;;;;;;15.43;11.07;;;15.90;99.90;;;;;;4940313;28;20510;-78
2024/03/14 11:07:39;;;;;;;15.20;11.27;;;15.90;99.90;;;;;;4941706;28;20469;-77
2024/03/14 11:10:09;;;;;;;11.40;10.17;;;16.00;99.90;;;;;;4926822;29;20466;-76
2024/03/14 11:12:38;;;;;;;12.33;10.63;;;16.00;99.90;;;;;;4947084;28;20463;-76
2024/03/14 11:15:08;;;;;;;11.83;10.63;;;16.00;99.90;;;;;;4941216;28;20569;-77
2024/03/14 11:17:36;;;;;;;11.93;10.50;;;16.00;99.90;;;;;;4939369;28;20466;-76
2024/03/14 11:20:09;;;;;;;10.50;9.13;;;16.10;99.90;;;;;;4957400;28;20465;-76
2024/03/14 11:22:40;;;;;;;12.27;11.03;;;16.20;99.90;;;;;;4943576;28;20870;-76
2024/03/14 11:25:08;;;;;;;14.87;11.00;;;16.30;99.90;;;;;;4941497;28;20499;-76
2024/03/14 11:27:35;;;;;;;13.07;11.77;;;16.40;99.90;;;;;;4941275;28;20533;-77
2024/03/14 11:30:10;;;;;;;11.73;10.57;;;16.40;99.90;;;;;;4940187;28;20471;-78
2024/03/14 11:32:37;;;;;;;11.40;10.30;;;16.50;99.90;;;;;;4939565;28;20455;-77
2024/03/14 11:35:38;;;;;;;11.03;10.03;;;16.50;99.90;;;;;;4940412;28;20490;-76
2024/03/14 11:38:23;;;;;;;10.70;9.63;;;16.60;99.90;;;;;;4942162;28;20467;-78
2024/03/14 11:41:07;;;;;;;9.27;8.37;;;16.60;99.90;;;;;;4958647;28;20455;-76
2024/03/14 11:43:35;;;;;;;8.07;7.27;;;16.60;99.90;;;;;;4942892;28;20525;-77
2024/03/14 11:46:04;;;;;;;11.60;10.23;;;16.60;99.90;;;;;;4939656;28;20542;-77
2024/03/14 11:48:31;;;;;;;9.00;8.10;;;16.70;99.90;;;;;;4940023;28;20494;-77
2024/03/14 11:51:01;;;;;;;8.80;8.00;;;16.70;99.90;;;;;;4938225;28;20482;-78
2024/03/14 11:53:29;;;;;;;9.00;8.10;;;16.70;99.90;;;;;;4934443;28;20472;-77
2024/03/14 11:55:57;;;;;;;8.83;7.93;;;16.70;99.90;;;;;;4939404;28;20466;-76
2024/03/14 11:58:24;;;;;;;11.80;8.07;;;16.60;99.90;;;;;;4941818;28;20521;-77
2024/03/14 12:00:54;;;;;;;8.17;7.23;;;16.60;99.90;;;;;;4939153;28;20474;-76
2024/03/14 12:03:22;;;;;;;8.43;7.63;;;16.60;99.90;;;;;;4926681;29;20481;-76
2024/03/14 12:05:52;;;;;;;7.90;7.20;;;16.50;99.90;;;;;;4932268;29;20470;-76
2024/03/14 12:08:22;;;;;;;9.13;8.23;;;16.50;99.90;;;;;;4934056;28;20570;-76
2024/03/14 12:10:53;;;;;;;8.93;7.90;;;16.50;99.90;;;;;;4950966;28;20576;-76
2024/03/14 12:13:23;;;;;;;7.67;6.90;;;16.60;99.90;;;;;;4938206;28;20507;-76
2024/03/14 12:15:58;;;;;;;8.10;7.30;;;16.70;99.90;;;;;;4939364;29;20468;-76
2024/03/14 12:18:27;;;;;;;10.97;10.07;;;16.70;99.90;;;;;;4938674;29;20472;-76
2024/03/14 12:20:54;;;;;;;11.03;8.87;;;16.80;99.90;;;;;;4945814;28;20460;-76
2024/03/14 12:23:23;;;;;;;10.93;9.17;;;16.80;99.90;;;;;;4938774;28;20472;-75
2024/03/14 12:25:50;;;;;;;8.90;8.10;;;16.80;99.90;;;;;;4939082;28;20472;-76
2024/03/14 12:28:17;;;;;;;8.97;8.17;;;16.80;99.90;;;;;;4928763;28;20466;-76
2024/03/14 12:30:45;;;;;;;9.77;8.77;;;16.80;99.90;;;;;;4958670;28;20463;-76
2024/03/14 12:33:12;;;;;;;8.83;7.93;;;16.80;99.90;;;;;;4937884;28;20483;-78
2024/03/14 12:35:41;;;;;;;7.90;7.20;;;16.80;99.90;;;;;;4972363;28;20564;-77